Dayton, OH (45400)

4:19 PM EST on March 01, 2015 (GMT -0500)
Sinclair Dayton Campus | Change Station
CLOSE
Current Station
Personal Weather Station
Location: Dayton, OH
Elevation: 780 ft
Nearby Weather Stations

Elev 780 ft 39.76 °N, 84.20 °W | Updated 3 seconds ago

Overcast
Overcast
33.7 °F
Feels Like 34 °F
N
0.0
Wind Variable Wind from WSW
Gusts 0.0 mph

Today
High -- | Low -- °F
--% Chance of Precip.
Yesterday
High -- | Low -- °F
Precip. -- in
7:10 AM 6:28 PM
Waxing Gibbous, 87% visible
Pressure 30.29 in
Visibility 1.5 miles
Clouds Overcast 600 ft
Windchill 34 °F
Dew Point 31 °F
Humidity 90%
Rainfall 0.02 in
Snow Depth Not available.
UV 6.3 out of 12
Pollen .70 out of 12
Air Quality Not available.
Flu Activity Not available.
METAR KFFO 012058Z 22004KT 1 1/2SM -SN BR OVC006 00/M01 A3025 RMK AO2A SLP257 P0000 60001 T10011007 57020

More Conditions Fewer Conditions

Pressure 30.29 in
Visibility 1.5 miles
Clouds Overcast 600 ft
Windchill 34 °F
Dew Point 31 °F
Humidity 90%
Rainfall 0.02 in
Snow Depth Not available.
UV 6.3 out of 12
Pollen .70 out of 12
Air Quality Not available.
Flu Activity Not available.
METAR KFFO 012058Z 22004KT 1 1/2SM -SN BR OVC006 00/M01 A3025 RMK AO2A SLP257 P0000 60001 T10011007 57020

More Conditions Fewer Conditions

10-Day Weather Forecast

Almanac

Astronomy

Mar. 01, 2015 Rise Set
Actual Time
Civil Twilight
Nautical Twilight
Astronomical Twilight
Moon
Length of Visible Light
Length of Day
Tomorrow will be .
, % of the Moon is Illuminated

Today's Extremes

State Highs State Lows

Community

WunderPhotos

Upload Photos

1,801,559 photos uploaded!

WunderBlogs® & News

Nearby

Air Quality

  Air Quality AQ Index Pollutant
Not available.

Snow Depth

Station Depth Elevation

Earthquake Activity

City Distance Mag. Time & Date
Minimum magnitude displayed is 2.5.

Coastal Water Temperatures

Place Temperature

Nearby Weather Stations

Winter Weather Advisory
Statement as of 2:33 PM EST on March 01, 2015

... Winter Weather Advisory remains in effect until 10 PM EST this
evening...

* accumulations... up to an inch of additional snow will be
possible this afternoon. Storm total snow accumulations will be
4 to 6 inches.

* Timing... snow will continue this afternoon... before coming to
an end this evening.

* Impacts... travel difficulties are expected due to reduced
visibilities and snow accumulations.

Precautionary/preparedness actions...

Remember... a Winter Weather Advisory means that periods of snow...
sleet... or freezing rain will cause travel difficulties. Be
prepared for slippery roads and limited visibilities... and use
caution while driving. Stay tuned to NOAA Weather Radio or your
favorite source of information for the latest updates. Additional
details can also be found at www.Weather.Gov/iln... as well as on
our facebook and twitter pages.